Isola Bianca — ICLD — position and weather

sailwx.info

Track history (hours):
 
Tides and Currents Weather Stations Pressure Air Temp Water Temp Dewpoint Dewpoint Depression Visibility Wind Speed Wind Dir Waves Ship Positions

Isola Bianca

Last reported at 2017-Aug-17 08:41 UTC. Time now 2017-Aug-17 09:27 UTC.
Position N 34°17' W 008°06'.

Length 183 m; draft 11.2 m.

Type: Ship. MMSI: 247245200.

Date/timePositionNaut miles runAvg speedWind from/ knotsBaromVisibWave heightAir tempDewpointWater temp
2017-Aug-17 08:41N 34°17' W 008°06'312.3
2017-Aug-17 08:28N 34°19' W 008°04'612.2
2017-Aug-17 07:58N 34°23' W 007°58'612.3
2017-Aug-17 07:30N 34°27' W 007°53'612.5
2017-Aug-17 07:00N 34°31' W 007°47'1412.7
2017-Aug-17 05:53N 34°41' W 007°35'612.8
2017-Aug-17 05:26N 34°45' W 007°30'1013.2
2017-Aug-17 04:43N 34°51' W 007°21'612.7
2017-Aug-17 04:15N 34°55' W 007°16'312.5
2017-Aug-17 03:59N 34°57' W 007°13'9912.4
2017-Aug-16 20:00N 35°58' W 005°36'611.9
2017-Aug-16 19:30N 35°59' W 005°29'612.2
2017-Aug-16 19:00N 36°03' W 005°23'6 6.5
2017-Aug-16 18:01N 36°04' W 005°15'111.9
2017-Aug-16 17:54N 36°04' W 005°14'21412.3
2017-Aug-16 00:29N 36°27' W 000°50'713.1
2017-Aug-15 23:58N 36°29' W 000°42'1512.9
2017-Aug-15 22:49N 36°32' W 000°24'412.8
2017-Aug-15 22:30N 36°33' W 000°19'612.8
2017-Aug-15 22:00N 36°35' W 000°12'812.1
2017-Aug-15 21:22N 36°36' W 000°02'412.0
2017-Aug-15 21:00N 36°37' E 000°03'612.1
2017-Aug-15 20:30N 36°38' E 000°11'611.9
2017-Aug-15 19:59N 36°40' E 000°18'612.3
2017-Aug-15 19:30N 36°41' E 000°25'612.5
2017-Aug-15 19:00N 36°43' E 000°33'611.8
2017-Aug-15 18:30N 36°44' E 000°40'612.0
2017-Aug-15 18:00N 36°45' E 000°47'612.2
2017-Aug-15 17:30N 36°46' E 000°55'612.3
2017-Aug-15 17:00N 36°47' E 001°02'612.7
2017-Aug-15 16:30N 36°49' E 001°10'613.1
2017-Aug-15 16:00N 36°51' E 001°18'713.8
2017-Aug-15 15:30N 36°52' E 001°26'713.7
2017-Aug-15 15:00N 36°54' E 001°35'813.5
2017-Aug-15 14:24N 36°55' E 001°45'713.4
2017-Aug-15 13:52N 36°57' E 001°53'513.4
2017-Aug-15 13:30N 36°58' E 001°59'713.4
2017-Aug-15 13:00N 36°60' E 002°07'713.3
2017-Aug-15 12:28N 37°01' E 002°16'613.3
2017-Aug-15 12:00N 37°02' E 002°24'713.6
2017-Aug-15 11:30N 37°03' E 002°32'713.5
2017-Aug-15 11:00N 37°05' E 002°40'713.3
2017-Aug-15 10:30N 37°06' E 002°49'613.2
2017-Aug-15 10:00N 37°07' E 002°57'713.0
2017-Aug-15 09:30N 37°09' E 003°05'712.9
2017-Aug-15 09:00N 37°09' E 003°13'612.9
2017-Aug-15 08:30N 37°10' E 003°21'612.9
2017-Aug-15 08:00N 37°10' E 003°29'713.2
2017-Aug-15 07:30N 37°11' E 003°37'713.4
2017-Aug-15 07:00N 37°11' E 003°45'713.3
2017-Aug-15 06:30N 37°12' E 003°54'713.0
2017-Aug-15 05:59N 37°13' E 004°02'612.9
2017-Aug-15 05:30N 37°13' E 004°10'612.8
2017-Aug-15 05:00N 37°14' E 004°18'612.2
2017-Aug-15 04:30N 37°14' E 004°26'612.7
2017-Aug-15 04:00N 37°14' E 004°34'713.0
2017-Aug-15 03:30N 37°14' E 004°42'613.0
2017-Aug-15 03:00N 37°14' E 004°50'5812.7
2017-Aug-14 22:25N 37°16' E 006°03'1212.9
2017-Aug-14 21:28N 37°16' E 006°19'913.2
2017-Aug-14 20:47N 37°14' E 006°30'514.0
2017-Aug-14 20:26N 37°11' E 006°35'614.0
2017-Aug-14 20:00N 37°08' E 006°41'  
2017-Aug-12 01:15N 36°29' W 000°42'512.1
2017-Aug-12 00:53N 36°28' W 000°48'21213.2
2017-Aug-11 08:50N 36°05' W 005°10'3 8.3
2017-Aug-11 08:30N 36°05' W 005°13'4 7.5
2017-Aug-11 08:00N 36°05' W 005°18'4 8.7
2017-Aug-11 07:30N 36°05' W 005°23'2 1.1
2017-Aug-11 05:49N 36°06' W 005°25'0 0.1
2017-Aug-11 05:28N 36°06' W 005°25'0 0.1
2017-Aug-11 04:58N 36°06' W 005°25'0 0.1
2017-Aug-11 03:52N 36°06' W 005°25'0 0.0
2017-Aug-11 03:04N 36°06' W 005°25'0 0.0
2017-Aug-11 02:34N 36°06' W 005°25'0 0.1
2017-Aug-11 02:28N 36°06' W 005°25'0 0.0
2017-Aug-11 01:58N 36°06' W 005°25'0 0.0
2017-Aug-11 01:22N 36°06' W 005°25'0 0.0
2017-Aug-10 23:43N 36°06' W 005°25'0 0.1
2017-Aug-10 23:28N 36°06' W 005°25'0 0.0
2017-Aug-10 22:58N 36°06' W 005°25'0 0.0
2017-Aug-10 22:10N 36°06' W 005°25'0 0.0
2017-Aug-10 21:52N 36°06' W 005°25'0 0.0
2017-Aug-10 20:40N 36°06' W 005°25'0 0.1
2017-Aug-10 20:28N 36°06' W 005°25'0 0.0
2017-Aug-10 19:58N 36°06' W 005°25'0 0.0
2017-Aug-10 19:04N 36°06' W 005°25'0 0.1
2017-Aug-10 18:58N 36°06' W 005°25'0 0.0
2017-Aug-10 18:04N 36°06' W 005°25'0 0.1
2017-Aug-10 17:58N 36°06' W 005°25'0 0.1
2017-Aug-10 17:13N 36°06' W 005°25'0 0.1
2017-Aug-10 16:52N 36°06' W 005°25'0 0.1
2017-Aug-10 14:29N 36°06' W 005°25'3 6.8
2017-Aug-10 14:01N 36°05' W 005°21'1 2.0
2017-Aug-10 13:31N 36°05' W 005°20'2 4.5
2017-Aug-10 13:00N 36°05' W 005°17'612.8
2017-Aug-10 12:30N 36°07' W 005°10'2 1.0
2017-Aug-10 10:33N 36°09' W 005°09'3 9.5
2017-Aug-10 10:17N 36°07' W 005°11'1 3.7
2017-Aug-10 10:00N 36°07' W 005°12'5 9.0
2017-Aug-10 09:30N 36°05' W 005°17'5 9.0
2017-Aug-10 09:00N 36°06' W 005°23'4 6.5
2017-Aug-10 08:27N 36°10' W 005°24'1 0.0
2017-Aug-08 18:11N 36°10' W 005°23'0 0.0
2017-Aug-08 17:56N 36°10' W 005°23'0 0.0
2017-Aug-08 17:29N 36°10' W 005°23'0 0.0
2017-Aug-08 16:59N 36°10' W 005°23'0 0.0
2017-Aug-08 16:29N 36°10' W 005°23'0 0.0
2017-Aug-08 15:59N 36°10' W 005°23'0 0.0
2017-Aug-08 15:29N 36°10' W 005°23'0 0.0
2017-Aug-08 14:59N 36°10' W 005°23'0 0.0
2017-Aug-08 14:29N 36°10' W 005°23'0 0.0
2017-Aug-08 13:59N 36°10' W 005°23'0 0.0
2017-Aug-08 13:29N 36°10' W 005°23'0 0.0
2017-Aug-08 12:59N 36°10' W 005°23'0 0.0
2017-Aug-08 12:26N 36°10' W 005°23'0 0.0
2017-Aug-08 11:56N 36°10' W 005°23'0 0.0
2017-Aug-08 11:20N 36°10' W 005°23'0 0.0
2017-Aug-08 10:59N 36°10' W 005°23'0 0.0
2017-Aug-08 10:29N 36°10' W 005°23'0 0.0
2017-Aug-08 09:59N 36°10' W 005°23'0 0.0
2017-Aug-08 09:29N 36°10' W 005°23'0 0.0
2017-Aug-08 08:59N 36°10' W 005°23'0 0.0
2017-Aug-08 08:29N 36°10' W 005°23'0 0.0
2017-Aug-08 07:53N 36°10' W 005°23'0 0.0
2017-Aug-08 07:29N 36°10' W 005°23'0 0.0
2017-Aug-08 06:14N 36°10' W 005°23'0 0.0
2017-Aug-08 05:59N 36°10' W 005°23'0 0.0
2017-Aug-08 05:29N 36°10' W 005°23'0 0.0
2017-Aug-08 05:00N 36°10' W 005°23'0 0.0
2017-Aug-08 04:29N 36°10' W 005°23'0 0.0
2017-Aug-08 03:59N 36°10' W 005°23'0 0.0
2017-Aug-08 03:29N 36°10' W 005°23'0 0.0
2017-Aug-08 02:59N 36°10' W 005°23'0 0.0
2017-Aug-08 02:29N 36°10' W 005°23'0 0.0
2017-Aug-08 01:59N 36°10' W 005°23'0 0.0
2017-Aug-08 01:20N 36°10' W 005°23'0 0.0
2017-Aug-07 23:53N 36°10' W 005°23'0 0.0
2017-Aug-07 23:29N 36°10' W 005°23'0 0.0
2017-Aug-07 22:11N 36°10' W 005°23'0 0.0
2017-Aug-07 20:38N 36°10' W 005°23'0 0.0
2017-Aug-07 20:20N 36°10' W 005°23'0 0.0
2017-Aug-07 18:20N 36°10' W 005°23'  
Track history (hours):
 
Tides and Currents Weather Stations Pressure Air Temp Water Temp Dewpoint Dewpoint Depression Visibility Wind Speed Wind Dir Waves Ship Positions

Isola Bianca

Last reported at 2017-Aug-17 08:41 UTC. Time now 2017-Aug-17 09:27 UTC.
Position N 34°17' W 008°06'.

Length 183 m; draft 11.2 m.

Type: Ship. MMSI: 247245200.

Date/timePositionNaut miles runAvg speedWind from/ knotsBaromVisibWave heightAir tempDewpointWater temp
2017-Aug-17 08:41N 34°17' W 008°06'312.3
2017-Aug-17 08:28N 34°19' W 008°04'612.2
2017-Aug-17 07:58N 34°23' W 007°58'612.3
2017-Aug-17 07:30N 34°27' W 007°53'612.5
2017-Aug-17 07:00N 34°31' W 007°47'1412.7
2017-Aug-17 05:53N 34°41' W 007°35'612.8
2017-Aug-17 05:26N 34°45' W 007°30'1013.2
2017-Aug-17 04:43N 34°51' W 007°21'612.7
2017-Aug-17 04:15N 34°55' W 007°16'312.5
2017-Aug-17 03:59N 34°57' W 007°13'9912.4
2017-Aug-16 20:00N 35°58' W 005°36'611.9
2017-Aug-16 19:30N 35°59' W 005°29'612.2
2017-Aug-16 19:00N 36°03' W 005°23'6 6.5
2017-Aug-16 18:01N 36°04' W 005°15'111.9
2017-Aug-16 17:54N 36°04' W 005°14'21412.3
2017-Aug-16 00:29N 36°27' W 000°50'713.1
2017-Aug-15 23:58N 36°29' W 000°42'1512.9
2017-Aug-15 22:49N 36°32' W 000°24'412.8
2017-Aug-15 22:30N 36°33' W 000°19'612.8
2017-Aug-15 22:00N 36°35' W 000°12'812.1
2017-Aug-15 21:22N 36°36' W 000°02'412.0
2017-Aug-15 21:00N 36°37' E 000°03'612.1
2017-Aug-15 20:30N 36°38' E 000°11'611.9
2017-Aug-15 19:59N 36°40' E 000°18'612.3
2017-Aug-15 19:30N 36°41' E 000°25'612.5
2017-Aug-15 19:00N 36°43' E 000°33'611.8
2017-Aug-15 18:30N 36°44' E 000°40'612.0
2017-Aug-15 18:00N 36°45' E 000°47'612.2
2017-Aug-15 17:30N 36°46' E 000°55'612.3
2017-Aug-15 17:00N 36°47' E 001°02'612.7
2017-Aug-15 16:30N 36°49' E 001°10'613.1
2017-Aug-15 16:00N 36°51' E 001°18'713.8
2017-Aug-15 15:30N 36°52' E 001°26'713.7
2017-Aug-15 15:00N 36°54' E 001°35'813.5
2017-Aug-15 14:24N 36°55' E 001°45'713.4
2017-Aug-15 13:52N 36°57' E 001°53'513.4
2017-Aug-15 13:30N 36°58' E 001°59'713.4
2017-Aug-15 13:00N 36°60' E 002°07'713.3
2017-Aug-15 12:28N 37°01' E 002°16'613.3
2017-Aug-15 12:00N 37°02' E 002°24'713.6
2017-Aug-15 11:30N 37°03' E 002°32'713.5
2017-Aug-15 11:00N 37°05' E 002°40'713.3
2017-Aug-15 10:30N 37°06' E 002°49'613.2
2017-Aug-15 10:00N 37°07' E 002°57'713.0
2017-Aug-15 09:30N 37°09' E 003°05'712.9
2017-Aug-15 09:00N 37°09' E 003°13'612.9
2017-Aug-15 08:30N 37°10' E 003°21'612.9
2017-Aug-15 08:00N 37°10' E 003°29'713.2
2017-Aug-15 07:30N 37°11' E 003°37'713.4
2017-Aug-15 07:00N 37°11' E 003°45'713.3
2017-Aug-15 06:30N 37°12' E 003°54'713.0
2017-Aug-15 05:59N 37°13' E 004°02'612.9
2017-Aug-15 05:30N 37°13' E 004°10'612.8
2017-Aug-15 05:00N 37°14' E 004°18'612.2
2017-Aug-15 04:30N 37°14' E 004°26'612.7
2017-Aug-15 04:00N 37°14' E 004°34'713.0
2017-Aug-15 03:30N 37°14' E 004°42'613.0
2017-Aug-15 03:00N 37°14' E 004°50'5812.7
2017-Aug-14 22:25N 37°16' E 006°03'1212.9
2017-Aug-14 21:28N 37°16' E 006°19'913.2
2017-Aug-14 20:47N 37°14' E 006°30'514.0
2017-Aug-14 20:26N 37°11' E 006°35'614.0
2017-Aug-14 20:00N 37°08' E 006°41'  
2017-Aug-12 01:15N 36°29' W 000°42'512.1
2017-Aug-12 00:53N 36°28' W 000°48'21213.2
2017-Aug-11 08:50N 36°05' W 005°10'3 8.3
2017-Aug-11 08:30N 36°05' W 005°13'4 7.5
2017-Aug-11 08:00N 36°05' W 005°18'4 8.7
2017-Aug-11 07:30N 36°05' W 005°23'2 1.1
2017-Aug-11 05:49N 36°06' W 005°25'0 0.1
2017-Aug-11 05:28N 36°06' W 005°25'0 0.1
2017-Aug-11 04:58N 36°06' W 005°25'0 0.1
2017-Aug-11 03:52N 36°06' W 005°25'0 0.0
2017-Aug-11 03:04N 36°06' W 005°25'0 0.0
2017-Aug-11 02:34N 36°06' W 005°25'0 0.1
2017-Aug-11 02:28N 36°06' W 005°25'0 0.0
2017-Aug-11 01:58N 36°06' W 005°25'0 0.0
2017-Aug-11 01:22N 36°06' W 005°25'0 0.0
2017-Aug-10 23:43N 36°06' W 005°25'0 0.1
2017-Aug-10 23:28N 36°06' W 005°25'0 0.0
2017-Aug-10 22:58N 36°06' W 005°25'0 0.0
2017-Aug-10 22:10N 36°06' W 005°25'0 0.0
2017-Aug-10 21:52N 36°06' W 005°25'0 0.0
2017-Aug-10 20:40N 36°06' W 005°25'0 0.1
2017-Aug-10 20:28N 36°06' W 005°25'0 0.0
2017-Aug-10 19:58N 36°06' W 005°25'0 0.0
2017-Aug-10 19:04N 36°06' W 005°25'0 0.1
2017-Aug-10 18:58N 36°06' W 005°25'0 0.0
2017-Aug-10 18:04N 36°06' W 005°25'0 0.1
2017-Aug-10 17:58N 36°06' W 005°25'0 0.1
2017-Aug-10 17:13N 36°06' W 005°25'0 0.1
2017-Aug-10 16:52N 36°06' W 005°25'0 0.1
2017-Aug-10 14:29N 36°06' W 005°25'3 6.8
2017-Aug-10 14:01N 36°05' W 005°21'1 2.0
2017-Aug-10 13:31N 36°05' W 005°20'2 4.5
2017-Aug-10 13:00N 36°05' W 005°17'612.8
2017-Aug-10 12:30N 36°07' W 005°10'2 1.0
2017-Aug-10 10:33N 36°09' W 005°09'3 9.5
2017-Aug-10 10:17N 36°07' W 005°11'1 3.7
2017-Aug-10 10:00N 36°07' W 005°12'5 9.0
2017-Aug-10 09:30N 36°05' W 005°17'5 9.0
2017-Aug-10 09:00N 36°06' W 005°23'4 6.5
2017-Aug-10 08:27N 36°10' W 005°24'1 0.0
2017-Aug-08 18:11N 36°10' W 005°23'0 0.0
2017-Aug-08 17:56N 36°10' W 005°23'0 0.0
2017-Aug-08 17:29N 36°10' W 005°23'0 0.0
2017-Aug-08 16:59N 36°10' W 005°23'0 0.0
2017-Aug-08 16:29N 36°10' W 005°23'0 0.0
2017-Aug-08 15:59N 36°10' W 005°23'0 0.0
2017-Aug-08 15:29N 36°10' W 005°23'0 0.0
2017-Aug-08 14:59N 36°10' W 005°23'0 0.0
2017-Aug-08 14:29N 36°10' W 005°23'0 0.0
2017-Aug-08 13:59N 36°10' W 005°23'0 0.0
2017-Aug-08 13:29N 36°10' W 005°23'0 0.0
2017-Aug-08 12:59N 36°10' W 005°23'0 0.0
2017-Aug-08 12:26N 36°10' W 005°23'0 0.0
2017-Aug-08 11:56N 36°10' W 005°23'0 0.0
2017-Aug-08 11:20N 36°10' W 005°23'0 0.0
2017-Aug-08 10:59N 36°10' W 005°23'0 0.0
2017-Aug-08 10:29N 36°10' W 005°23'0 0.0
2017-Aug-08 09:59N 36°10' W 005°23'0 0.0
2017-Aug-08 09:29N 36°10' W 005°23'0 0.0
2017-Aug-08 08:59N 36°10' W 005°23'0 0.0
2017-Aug-08 08:29N 36°10' W 005°23'0 0.0
2017-Aug-08 07:53N 36°10' W 005°23'0 0.0
2017-Aug-08 07:29N 36°10' W 005°23'0 0.0
2017-Aug-08 06:14N 36°10' W 005°23'0 0.0
2017-Aug-08 05:59N 36°10' W 005°23'0 0.0
2017-Aug-08 05:29N 36°10' W 005°23'0 0.0
2017-Aug-08 05:00N 36°10' W 005°23'0 0.0
2017-Aug-08 04:29N 36°10' W 005°23'0 0.0
2017-Aug-08 03:59N 36°10' W 005°23'0 0.0
2017-Aug-08 03:29N 36°10' W 005°23'0 0.0
2017-Aug-08 02:59N 36°10' W 005°23'0 0.0
2017-Aug-08 02:29N 36°10' W 005°23'0 0.0
2017-Aug-08 01:59N 36°10' W 005°23'0 0.0
2017-Aug-08 01:20N 36°10' W 005°23'0 0.0
2017-Aug-07 23:53N 36°10' W 005°23'0 0.0
2017-Aug-07 23:29N 36°10' W 005°23'0 0.0
2017-Aug-07 22:11N 36°10' W 005°23'0 0.0
2017-Aug-07 20:38N 36°10' W 005°23'0 0.0
2017-Aug-07 20:20N 36°10' W 005°23'0 0.0
2017-Aug-07 18:20N 36°10' W 005°23'  

Dump ship's entire track history